createdAt,value
2022-09-05T00:00:55.472Z,96033.19
2022-09-05T00:04:10.560Z,96027.41
2022-09-05T00:07:47.685Z,96027.06
2022-09-05T00:11:41.892Z,96031.09
2022-09-05T00:14:57.281Z,96024.16
2022-09-05T00:18:56.482Z,96018.44
2022-09-05T00:24:20.780Z,96018.59
2022-09-05T00:25:20.878Z,96022.84
2022-09-05T00:28:27.650Z,96021.84
2022-09-05T00:31:55.020Z,96018.81
2022-09-05T00:35:02.596Z,96013.91
2022-09-05T00:38:12.312Z,96016.91
2022-09-05T00:41:14.188Z,96020.31
2022-09-05T00:44:19.904Z,96017.44
2022-09-05T00:47:29.961Z,96020.97
2022-09-05T00:50:37.220Z,96012.56
2022-09-05T00:53:43.894Z,96013.34
2022-09-05T00:56:53.778Z,96011.75
2022-09-05T01:00:17.649Z,96008.28
2022-09-05T01:03:37.854Z,96017.38
2022-09-05T01:06:47.860Z,96014.84
2022-09-05T01:09:56.352Z,96012.72
2022-09-05T01:13:14.067Z,96008.78
2022-09-05T01:16:22.127Z,96006.81
2022-09-05T01:19:28.404Z,96008.75
2022-09-05T01:22:47.646Z,96013.84
2022-09-05T01:25:58.651Z,96007.22
2022-09-05T01:29:17.701Z,96004.44
2022-09-05T01:32:27.259Z,96003.84
2022-09-05T01:35:52.306Z,96005.28
2022-09-05T01:40:12.528Z,96002.22
2022-09-05T01:42:41.813Z,96004.91
2022-09-05T01:45:50.993Z,96002.88
2022-09-05T01:48:56.875Z,96000.78
2022-09-05T01:52:11.414Z,96009.25
2022-09-05T01:55:22.477Z,96006.50
2022-09-05T01:58:27.027Z,96009.56
2022-09-05T02:01:35.952Z,96007.63
2022-09-05T02:04:55.479Z,96006.16
2022-09-05T02:08:05.250Z,96002.81
2022-09-05T02:11:07.440Z,96004.00
2022-09-05T02:14:29.801Z,96002.75
2022-09-05T02:17:51.186Z,96002.19
2022-09-05T02:20:56.598Z,95999.09
2022-09-05T02:24:05.112Z,95996.72
2022-09-05T02:28:03.316Z,96001.09
2022-09-05T02:30:55.770Z,96006.16
2022-09-05T02:34:12.976Z,95993.78
2022-09-05T02:37:17.064Z,95999.75
2022-09-05T02:45:16.999Z,95996.03
2022-09-05T02:45:21.520Z,95998.56
2022-09-05T02:47:22.378Z,95989.56
2022-09-05T02:52:54.910Z,95988.31
2022-09-05T02:57:40.448Z,95991.13
2022-09-05T02:58:05.404Z,95978.31
2022-09-05T03:01:02.473Z,95989.94
2022-09-05T03:04:08.734Z,95989.22
2022-09-05T03:07:27.858Z,95988.38
2022-09-05T03:10:54.312Z,95990.28
2022-09-05T03:14:11.107Z,95990.25
2022-09-05T03:17:31.319Z,95991.38
2022-09-05T03:20:50.905Z,95989.41
2022-09-05T03:24:19.809Z,95987.22
2022-09-05T03:27:39.434Z,95985.28
2022-09-05T03:30:52.394Z,95982.59
2022-09-05T03:34:04.707Z,95982.94
2022-09-05T03:37:17.550Z,95989.13
2022-09-05T03:40:34.047Z,95988.47
2022-09-05T03:43:45.277Z,95988.53
2022-09-05T03:46:52.002Z,95984.31
2022-09-05T03:57:04.558Z,95983.84
2022-09-05T03:57:25.334Z,95990.50
2022-09-05T04:01:11.089Z,95995.31
2022-09-05T04:08:10.000Z,96002.69
2022-09-05T04:08:27.807Z,96001.84
2022-09-05T04:11:16.677Z,96016.94
2022-09-05T04:14:22.915Z,96007.59
2022-09-05T04:17:30.956Z,96008.34
2022-09-05T04:20:40.614Z,96004.88
2022-09-05T04:23:48.199Z,96010.66
2022-09-05T04:26:57.529Z,96008.03
2022-09-05T04:29:59.971Z,96004.22
2022-09-05T04:33:07.276Z,96010.81
2022-09-05T04:36:18.171Z,96019.34
2022-09-05T04:39:25.358Z,96018.53
2022-09-05T04:42:28.247Z,96024.41
2022-09-05T04:45:33.984Z,96031.34
2022-09-05T04:48:39.482Z,96034.44
2022-09-05T04:52:02.360Z,96040.25
2022-09-05T04:55:08.264Z,96040.69
2022-09-05T04:58:13.532Z,96041.06
2022-09-05T05:06:00.144Z,96047.75
2022-09-05T05:06:13.324Z,96047.69
2022-09-05T05:08:05.796Z,96042.63
2022-09-05T05:18:00.438Z,96049.97
2022-09-05T05:18:08.633Z,96044.22
2022-09-05T05:18:53.141Z,96047.31
2022-09-05T05:21:27.280Z,96043.47
2022-09-05T05:24:30.428Z,96049.28
2022-09-05T05:27:38.133Z,96048.16
2022-09-05T05:30:41.093Z,96048.50
2022-09-05T05:33:44.918Z,96050.81
2022-09-05T05:36:55.248Z,96046.94
2022-09-05T05:40:03.900Z,96063.22
2022-09-05T05:43:13.617Z,96062.06
2022-09-05T05:46:23.658Z,96065.13
2022-09-05T05:49:41.012Z,96068.28
2022-09-05T05:52:56.582Z,96064.41
2022-09-05T05:56:19.104Z,96057.03
2022-09-05T05:59:30.770Z,96057.47
2022-09-05T06:03:24.662Z,96066.72
2022-09-05T06:06:22.662Z,96064.34
2022-09-05T06:14:50.463Z,96067.84
2022-09-05T06:15:00.912Z,96061.53
2022-09-05T06:16:59.222Z,96063.03
2022-09-05T06:22:04.592Z,96062.66
2022-09-05T06:23:56.235Z,96063.03
2022-09-05T06:27:12.869Z,96068.94
2022-09-05T06:30:18.315Z,96070.16
2022-09-05T06:33:27.799Z,96065.78
2022-09-05T06:36:39.240Z,96063.84
2022-09-05T06:39:52.220Z,96058.38
2022-09-05T06:43:02.866Z,96065.09
2022-09-05T06:46:11.968Z,96061.97
2022-09-05T06:49:30.384Z,96059.22
2022-09-05T06:52:50.271Z,96067.69
2022-09-05T06:55:58.640Z,96063.66
2022-09-05T06:59:30.338Z,96072.38
2022-09-05T07:02:58.276Z,96074.78
2022-09-05T07:06:00.266Z,96063.81
2022-09-05T07:09:06.052Z,96069.94
2022-09-05T07:12:14.944Z,96072.22
2022-09-05T07:15:25.619Z,96069.75
2022-09-05T07:18:33.248Z,96078.84
2022-09-05T07:21:40.271Z,96076.94
2022-09-05T07:24:55.208Z,96071.38
2022-09-05T07:28:29.806Z,96079.22
2022-09-05T07:31:37.407Z,96097.53
2022-09-05T07:34:44.091Z,96088.34
2022-09-05T07:37:47.404Z,96087.97
2022-09-05T07:40:51.869Z,96088.28
2022-09-05T07:43:55.291Z,96093.50
2022-09-05T07:47:01.842Z,96089.34
2022-09-05T07:54:08.950Z,96090.63
2022-09-05T07:56:55.403Z,96095.75
2022-09-05T07:57:26.926Z,96100.56
2022-09-05T08:00:26.070Z,96094.72
2022-09-05T08:03:30.763Z,96106.59
2022-09-05T08:07:48.660Z,96102.16
2022-09-05T08:10:06.795Z,96105.78
2022-09-05T08:13:24.723Z,96104.53
2022-09-05T08:16:38.824Z,96108.19
2022-09-05T08:19:51.061Z,96104.88
2022-09-05T08:22:57.402Z,96102.81
2022-09-05T08:26:02.739Z,96105.66
2022-09-05T08:29:08.228Z,96097.00
2022-09-05T08:32:11.880Z,96088.47
2022-09-05T08:35:16.757Z,96101.28
2022-09-05T08:38:20.381Z,96094.94
2022-09-05T08:41:49.284Z,96084.13
2022-09-05T08:46:46.925Z,96097.59
2022-09-05T08:48:22.620Z,96103.84
2022-09-05T08:51:28.462Z,96094.66
2022-09-05T08:54:35.493Z,96092.19
2022-09-05T08:57:51.670Z,96107.13
2022-09-05T09:00:58.980Z,96094.09
2022-09-05T09:04:41.667Z,96093.88
2022-09-05T09:07:50.594Z,96087.84
2022-09-05T09:10:56.644Z,96082.78
2022-09-05T09:14:23.360Z,96086.16
2022-09-05T09:17:40.559Z,96074.69
2022-09-05T09:20:47.985Z,96073.63
2022-09-05T09:23:51.272Z,96070.53
2022-09-05T09:26:57.403Z,96067.84
2022-09-05T09:30:03.182Z,96075.25
2022-09-05T09:33:07.159Z,96073.31
2022-09-05T09:36:16.430Z,96072.50
2022-09-05T09:39:38.802Z,96059.75
2022-09-05T09:42:48.606Z,96068.50
2022-09-05T09:46:05.113Z,96068.41
2022-09-05T09:49:23.340Z,96058.31
2022-09-05T09:52:45.225Z,96060.81
2022-09-05T09:56:09.821Z,96070.22
2022-09-05T09:59:36.688Z,96062.25
2022-09-05T10:06:37.864Z,96063.81
2022-09-05T10:10:46.048Z,96059.06
2022-09-05T10:10:50.965Z,96057.19
2022-09-05T10:14:07.704Z,96062.47
2022-09-05T10:17:38.971Z,96069.34
2022-09-05T10:21:16.190Z,96059.03
2022-09-05T10:24:31.290Z,96061.53
2022-09-05T10:27:38.765Z,96060.44
2022-09-05T10:32:12.128Z,96061.13
2022-09-05T10:35:06.164Z,96060.09
2022-09-05T10:37:39.770Z,96055.63
2022-09-05T10:41:11.239Z,96052.03
2022-09-05T10:44:07.049Z,96051.53
2022-09-05T10:47:15.641Z,96053.50
2022-09-05T10:50:27.917Z,96043.94
2022-09-05T10:53:39.522Z,96047.78
2022-09-05T10:56:44.209Z,96041.75
2022-09-05T11:02:15.922Z,96034.00
2022-09-05T11:03:22.956Z,96031.91
2022-09-05T11:06:35.952Z,96027.19
2022-09-05T11:09:42.099Z,96019.81
2022-09-05T11:12:57.376Z,96028.06
2022-09-05T11:16:08.277Z,96022.56
2022-09-05T11:19:18.493Z,96022.03
2022-09-05T11:22:24.531Z,96022.88
2022-09-05T11:25:40.129Z,96024.84
2022-09-05T11:29:00.518Z,96024.16
2022-09-05T11:32:56.525Z,96020.88
2022-09-05T11:39:48.559Z,96027.88
2022-09-05T11:39:57.508Z,96025.69
2022-09-05T11:42:48.862Z,96023.53
2022-09-05T11:46:05.651Z,96016.66
2022-09-05T11:49:25.803Z,96026.88
2022-09-05T11:52:42.318Z,96018.41
2022-09-05T11:55:57.623Z,96023.03
2022-09-05T11:59:13.897Z,96020.38
2022-09-05T12:02:24.788Z,96014.00
2022-09-05T12:05:50.592Z,96014.75
2022-09-05T12:08:56.790Z,96011.78
2022-09-05T12:12:18.731Z,95999.38
2022-09-05T12:15:32.691Z,96008.81
2022-09-05T12:18:35.244Z,96002.97
2022-09-05T12:21:41.560Z,96007.34
2022-09-05T12:25:30.933Z,95993.31
2022-09-05T12:29:09.595Z,95999.91
2022-09-05T12:32:36.563Z,95991.03
2022-09-05T12:36:08.393Z,95990.13
2022-09-05T12:40:54.214Z,95985.09
2022-09-05T12:42:14.475Z,95977.94
2022-09-05T12:45:22.333Z,95979.16
2022-09-05T12:48:40.512Z,95973.94
2022-09-05T12:51:47.713Z,95972.19
2022-09-05T12:54:56.575Z,95969.44
2022-09-05T13:01:36.541Z,95968.31
2022-09-05T13:03:08.575Z,95974.00
2022-09-05T13:05:02.168Z,95977.72
2022-09-05T13:08:04.343Z,95970.19
2022-09-05T13:14:49.038Z,95969.72
2022-09-05T13:15:03.211Z,95971.00
2022-09-05T13:17:58.459Z,95968.41
2022-09-05T13:21:02.240Z,95965.63
2022-09-05T13:24:05.605Z,95968.84
2022-09-05T13:27:10.779Z,95959.31
2022-09-05T13:35:12.341Z,95958.56
2022-09-05T13:38:03.700Z,95956.88
2022-09-05T13:38:17.982Z,95955.03
2022-09-05T13:40:27.220Z,95958.75
2022-09-05T13:43:31.772Z,95959.63
2022-09-05T13:46:37.669Z,95953.81
2022-09-05T13:49:43.965Z,95947.53
2022-09-05T13:52:47.281Z,95950.47
2022-09-05T13:55:50.830Z,95941.69
2022-09-05T13:58:57.365Z,95939.84
2022-09-05T14:02:26.443Z,95941.38
2022-09-05T14:05:34.896Z,95933.72
2022-09-05T14:08:43.918Z,95933.53
2022-09-05T14:11:48.925Z,95932.78
2022-09-05T14:15:10.417Z,95933.72
2022-09-05T14:18:21.539Z,95919.09
2022-09-05T14:21:26.945Z,95931.53
2022-09-05T14:24:32.438Z,95933.88
2022-09-05T14:27:34.642Z,95923.16
2022-09-05T14:32:51.751Z,95923.41
2022-09-05T14:37:46.747Z,95916.78
2022-09-05T14:38:14.223Z,95914.50
2022-09-05T14:41:30.557Z,95906.91
2022-09-05T14:44:46.392Z,95915.50
2022-09-05T14:48:02.295Z,95906.00
2022-09-05T14:51:25.705Z,95905.19
2022-09-05T15:02:48.459Z,95910.66
2022-09-05T15:02:53.847Z,95920.03
2022-09-05T15:04:44.880Z,95905.00
2022-09-05T15:07:47.614Z,95900.94
2022-09-05T15:12:19.834Z,95905.75
2022-09-05T15:14:13.297Z,95903.06
2022-09-05T15:17:20.993Z,95896.13
2022-09-05T15:20:30.592Z,95891.50
2022-09-05T15:23:33.417Z,95896.66
2022-09-05T15:26:46.949Z,95886.34
2022-09-05T15:29:54.010Z,95883.00
2022-09-05T15:33:10.787Z,95883.59
2022-09-05T15:36:13.004Z,95883.00
2022-09-05T15:39:21.945Z,95883.50
2022-09-05T15:42:29.338Z,95882.16
2022-09-05T15:45:32.672Z,95882.03
2022-09-05T15:48:34.979Z,95886.53
2022-09-05T15:51:44.965Z,95877.25
2022-09-05T15:54:49.605Z,95874.78
2022-09-05T15:57:54.542Z,95879.19
2022-09-05T16:00:56.408Z,95868.91
2022-09-05T16:05:41.093Z,95870.59
2022-09-05T16:10:35.229Z,95869.13
2022-09-05T16:11:05.427Z,95863.22
2022-09-05T16:14:12.997Z,95863.25
2022-09-05T16:23:15.136Z,95857.50
2022-09-05T16:23:24.702Z,95853.88
2022-09-05T16:24:15.780Z,95848.47
2022-09-05T16:27:33.494Z,95846.09
2022-09-05T16:30:38.714Z,95847.69
2022-09-05T16:33:42.032Z,95849.72
2022-09-05T16:36:48.663Z,95854.25
2022-09-05T16:40:07.199Z,95846.88
2022-09-05T16:43:12.334Z,95852.19
2022-09-05T16:46:17.608Z,95847.19
2022-09-05T16:49:41.606Z,95851.66
2022-09-05T16:52:56.150Z,95848.88
2022-09-05T16:55:59.508Z,95847.28
2022-09-05T16:59:02.930Z,95849.09
2022-09-05T17:02:08.059Z,95848.69
2022-09-05T17:05:11.783Z,95852.16
2022-09-05T17:08:19.379Z,95854.94
2022-09-05T17:11:31.588Z,95850.06
2022-09-05T17:14:34.758Z,95853.25
2022-09-05T17:18:21.768Z,95846.78
2022-09-05T17:21:43.436Z,95839.88
2022-09-05T17:29:18.815Z,95844.13
2022-09-05T17:29:32.754Z,95849.28
2022-09-05T17:31:52.089Z,95849.78
2022-09-05T17:35:17.423Z,95854.88
2022-09-05T17:38:47.252Z,95850.59
2022-09-05T17:42:09.611Z,95853.88
2022-09-05T17:45:14.951Z,95856.78
2022-09-05T17:48:36.741Z,95852.09
2022-09-05T17:51:59.399Z,95860.94
2022-09-05T17:55:12.017Z,95853.31
2022-09-05T17:58:20.047Z,95862.78
2022-09-05T18:01:21.842Z,95861.56
2022-09-05T18:04:45.286Z,95858.47
2022-09-05T18:07:52.106Z,95861.53
2022-09-05T18:11:02.205Z,95870.88
2022-09-05T18:14:35.122Z,95876.34
2022-09-05T18:17:51.785Z,95873.25
2022-09-05T18:21:21.890Z,95883.91
2022-09-05T18:24:24.429Z,95882.28
2022-09-05T18:28:03.341Z,95884.91
2022-09-05T18:30:51.432Z,95885.56
2022-09-05T18:34:07.962Z,95882.28
2022-09-05T18:37:24.577Z,95885.31
2022-09-05T18:40:39.371Z,95884.69
2022-09-05T18:44:13.449Z,95888.97
2022-09-05T18:47:33.595Z,95885.16
2022-09-05T18:50:41.627Z,95895.81
2022-09-05T18:53:47.044Z,95889.00
2022-09-05T18:57:13.899Z,95894.69
2022-09-05T19:00:13.499Z,95902.50
2022-09-05T19:03:20.189Z,95904.91
2022-09-05T19:06:36.745Z,95910.88
2022-09-05T19:09:55.177Z,95906.81
2022-09-05T19:12:59.114Z,95906.09
2022-09-05T19:16:42.214Z,95894.16
2022-09-05T19:19:26.266Z,95895.03
2022-09-05T19:23:08.911Z,95892.19
2022-09-05T19:25:53.762Z,95897.50
2022-09-05T19:36:44.960Z,95890.16
2022-09-05T19:36:55.080Z,95883.94
2022-09-05T19:37:06.455Z,95888.97
2022-09-05T19:43:19.896Z,95887.34
2022-09-05T19:47:38.911Z,95881.38
2022-09-05T19:47:43.623Z,95887.47
2022-09-05T19:49:29.526Z,95883.00
2022-09-05T19:52:32.832Z,95891.03
2022-09-05T19:55:38.055Z,95880.81
2022-09-05T19:58:40.008Z,95878.75
2022-09-05T20:01:42.881Z,95882.69
2022-09-05T20:04:52.837Z,95875.88
2022-09-05T20:07:57.146Z,95882.69
2022-09-05T20:11:02.510Z,95879.94
2022-09-05T20:14:16.842Z,95878.41
2022-09-05T20:17:20.768Z,95867.22
2022-09-05T20:20:23.416Z,95864.91
2022-09-05T20:23:28.055Z,95864.34
2022-09-05T20:26:30.380Z,95868.00
2022-09-05T20:29:54.993Z,95865.78
2022-09-05T20:32:58.921Z,95861.50
2022-09-05T20:43:18.357Z,95852.16
2022-09-05T20:43:29.180Z,95848.44
2022-09-05T20:43:35.483Z,95839.78
2022-09-05T20:48:43.494Z,95831.44
2022-09-05T20:54:10.404Z,95823.41
2022-09-05T20:54:28.650Z,95829.72
2022-09-05T20:56:30.042Z,95823.69
2022-09-05T20:59:33.741Z,95820.19
2022-09-05T21:02:35.574Z,95817.09
2022-09-05T21:05:38.103Z,95820.34
2022-09-05T21:08:39.801Z,95822.72
2022-09-05T21:11:43.429Z,95824.25
2022-09-05T21:14:45.347Z,95824.97
2022-09-05T21:17:47.250Z,95822.75
2022-09-05T21:20:53.072Z,95819.63
2022-09-05T21:24:02.314Z,95817.66
2022-09-05T21:27:24.050Z,95813.28
2022-09-05T21:30:30.205Z,95821.50
2022-09-05T21:33:36.735Z,95818.09
2022-09-05T21:36:47.327Z,95809.72
2022-09-05T21:40:04.824Z,95817.69
2022-09-05T21:47:34.257Z,95821.34
2022-09-05T21:47:40.384Z,95817.41
2022-09-05T21:49:51.214Z,95820.44
2022-09-05T21:53:04.186Z,95819.47
2022-09-05T21:59:25.433Z,95815.06
2022-09-05T21:59:46.577Z,95820.16
2022-09-05T22:02:48.942Z,95818.09
2022-09-05T22:05:51.571Z,95814.41
2022-09-05T22:09:11.356Z,95811.66
2022-09-05T22:12:30.203Z,95822.19
2022-09-05T22:15:34.123Z,95817.66
2022-09-05T22:18:37.873Z,95815.59
2022-09-05T22:21:40.066Z,95813.97
2022-09-05T22:24:44.119Z,95814.41
2022-09-05T22:27:45.837Z,95815.94
2022-09-05T22:30:48.988Z,95816.13
2022-09-05T22:33:51.192Z,95802.41
2022-09-05T22:36:53.119Z,95808.25
2022-09-05T22:39:54.850Z,95800.88
2022-09-05T22:42:56.861Z,95806.91
2022-09-05T22:45:59.913Z,95803.97
2022-09-05T22:49:01.625Z,95802.66
2022-09-05T22:52:03.822Z,95798.72
2022-09-05T22:55:05.966Z,95798.13
2022-09-05T22:58:09.085Z,95791.91
2022-09-05T23:01:12.425Z,95796.53
2022-09-05T23:04:14.229Z,95798.75
2022-09-05T23:07:15.897Z,95798.00
2022-09-05T23:10:18.890Z,95799.84
2022-09-05T23:13:20.558Z,95802.34
2022-09-05T23:16:23.659Z,95802.94
2022-09-05T23:19:25.401Z,95799.66
2022-09-05T23:22:27.096Z,95796.53
2022-09-05T23:25:28.790Z,95794.03
2022-09-05T23:28:30.490Z,95794.03
2022-09-05T23:31:33.624Z,95793.91
2022-09-05T23:34:35.347Z,95791.19
2022-09-05T23:37:37.107Z,95782.88
2022-09-05T23:40:38.844Z,95782.31
2022-09-05T23:43:40.523Z,95785.66
2022-09-05T23:46:43.658Z,95783.59
2022-09-05T23:49:45.306Z,95781.28
2022-09-05T23:52:47.580Z,95772.41
2022-09-05T23:55:49.494Z,95770.16
2022-09-05T23:58:51.142Z,95770.50
